Airport Name : Bushehr

Other Name : Bushehr

ICAO : OIBB

IATA : BUZ

FAA :

Latitude : 28.944811

Longitude : 50.834637

Country : Iran

Local Date and Time : 24 Jan 2021 10:02

 

TAF (Terminal Aerodrome Forecast)

 

METAR (METeorological Aerodrome Report)

OIBB 240600Z 35006KT CAVOK 14/08 Q1023 A3021

OIBB 240500Z 02006KT 9999 FEW045 BKN100 14/09 Q1022 A3019

OIBB 240400Z 02006KT 9999 SCT040 BKN090 13/09 Q1022 A3018

OIBB 240300Z 36006KT 9999 SCT040 BKN090 13/09 Q1021 A3017

To Charter a Jet Click here.